Terminal Aerodrome Forecast
Issued by NWS

Home | Current Version | Previous Version | Text Only | Print | Product List | Glossary On
Versions: 1 2 3 4 5 6 7 8 9 10
984
FTAK31 PAJN 241122
TAFAYA
TAF
PAYA 241122Z 2412/2512 02003KT P6SM BKN080
     FM242100 12007KT P6SM -RA BKN025 OVC050=

USA.gov is the U.S. government's official web portal to all federal, state and local government web resources and services.